createdAt,value
2023-06-16T00:00:13.798Z,4.10
2023-06-16T00:02:43.039Z,4.45
2023-06-16T00:05:13.826Z,4.35
2023-06-16T00:07:40.800Z,3.95
2023-06-16T00:10:08.152Z,3.97
2023-06-16T00:12:35.459Z,3.95
2023-06-16T00:15:02.304Z,3.80
2023-06-16T00:17:29.338Z,4.30
2023-06-16T00:19:58.834Z,3.75
2023-06-16T00:22:27.044Z,3.90
2023-06-16T00:24:53.944Z,4.10
2023-06-16T00:27:26.224Z,3.80
2023-06-16T00:29:53.725Z,4.32
2023-06-16T00:32:20.354Z,3.90
2023-06-16T00:34:46.879Z,3.85
2023-06-16T00:37:13.427Z,4.40
2023-06-16T00:39:40.067Z,4.03
2023-06-16T00:42:06.904Z,3.80
2023-06-16T00:44:33.522Z,3.95
2023-06-16T00:47:00.369Z,4.45
2023-06-16T00:49:27.290Z,4.22
2023-06-16T00:51:54.457Z,4.47
2023-06-16T00:54:21.771Z,4.53
2023-06-16T00:56:48.870Z,4.50
2023-06-16T00:59:15.589Z,4.68
2023-06-16T01:01:42.348Z,5.00
2023-06-16T01:04:11.047Z,4.45
2023-06-16T01:06:37.703Z,4.82
2023-06-16T01:09:10.620Z,4.72
2023-06-16T01:11:37.126Z,4.85
2023-06-16T01:14:17.631Z,4.25
2023-06-16T01:16:46.004Z,5.10
2023-06-16T01:19:18.977Z,4.82
2023-06-16T01:21:51.722Z,4.75
2023-06-16T01:24:19.919Z,5.30
2023-06-16T01:26:51.236Z,4.72
2023-06-16T01:29:20.699Z,4.55
2023-06-16T01:31:47.368Z,5.35
2023-06-16T01:34:14.546Z,4.85
2023-06-16T01:36:42.680Z,4.97
2023-06-16T01:39:10.160Z,4.85
2023-06-16T01:41:37.223Z,4.65
2023-06-16T01:44:05.595Z,4.97
2023-06-16T01:46:32.691Z,5.35
2023-06-16T01:48:59.488Z,4.95
2023-06-16T01:51:26.166Z,4.82
2023-06-16T01:53:53.707Z,5.03
2023-06-16T01:56:20.774Z,4.55
2023-06-16T01:58:47.534Z,4.63
2023-06-16T02:01:19.891Z,4.45
2023-06-16T02:03:51.797Z,4.72
2023-06-16T02:06:27.836Z,4.78
2023-06-16T02:08:56.553Z,4.80
2023-06-16T02:11:23.182Z,4.70
2023-06-16T02:13:50.057Z,4.90
2023-06-16T02:16:16.596Z,4.88
2023-06-16T02:18:43.977Z,4.88
2023-06-16T02:21:10.978Z,5.03
2023-06-16T02:23:37.585Z,4.70
2023-06-16T02:26:04.199Z,5.10
2023-06-16T02:28:30.796Z,5.00
2023-06-16T02:30:57.381Z,4.63
2023-06-16T02:33:24.432Z,5.30
2023-06-16T02:35:51.299Z,5.13
2023-06-16T02:38:17.823Z,5.18
2023-06-16T02:40:44.487Z,4.90
2023-06-16T02:43:12.464Z,5.13
2023-06-16T02:45:39.083Z,5.03
2023-06-16T02:48:06.181Z,4.78
2023-06-16T02:50:32.734Z,5.40
2023-06-16T02:53:03.215Z,5.20
2023-06-16T02:55:30.157Z,4.82
2023-06-16T02:57:57.304Z,4.90
2023-06-16T03:00:25.184Z,5.15
2023-06-16T03:03:21.700Z,4.78
2023-06-16T03:05:58.472Z,5.05
2023-06-16T03:08:26.358Z,5.70
2023-06-16T03:10:53.368Z,5.18
2023-06-16T03:13:25.542Z,4.97
2023-06-16T03:15:55.666Z,4.80
2023-06-16T03:18:22.392Z,5.28
2023-06-16T03:20:49.438Z,5.13
2023-06-16T03:23:24.394Z,5.53
2023-06-16T03:25:50.978Z,5.30
2023-06-16T03:28:21.896Z,5.15
2023-06-16T03:30:49.435Z,5.20
2023-06-16T03:33:22.816Z,5.07
2023-06-16T03:35:50.653Z,5.22
2023-06-16T03:38:27.304Z,5.40
2023-06-16T03:40:54.084Z,5.22
2023-06-16T03:43:21.285Z,4.90
2023-06-16T03:45:48.020Z,5.13
2023-06-16T03:48:14.726Z,5.07
2023-06-16T03:50:47.237Z,5.20
2023-06-16T03:53:16.572Z,5.10
2023-06-16T03:55:44.821Z,5.40
2023-06-16T03:58:11.700Z,5.43
2023-06-16T04:00:38.220Z,5.32
2023-06-16T04:03:06.052Z,4.97
2023-06-16T04:05:33.884Z,5.80
2023-06-16T04:08:02.329Z,5.10
2023-06-16T04:10:28.966Z,5.18
2023-06-16T04:12:56.219Z,5.95
2023-06-16T04:15:23.537Z,5.43
2023-06-16T04:17:51.496Z,5.43
2023-06-16T04:20:18.795Z,5.32
2023-06-16T04:22:46.102Z,5.35
2023-06-16T04:25:13.488Z,4.85
2023-06-16T04:27:44.928Z,5.60
2023-06-16T04:30:12.327Z,5.50
2023-06-16T04:32:41.812Z,6.13
2023-06-16T04:35:12.446Z,5.22
2023-06-16T04:37:39.528Z,5.10
2023-06-16T04:40:09.325Z,5.78
2023-06-16T04:42:36.114Z,5.78
2023-06-16T04:45:02.900Z,6.20
2023-06-16T04:47:35.344Z,6.30
2023-06-16T04:50:02.539Z,6.88
2023-06-16T04:52:31.352Z,6.32
2023-06-16T04:55:01.588Z,6.63
2023-06-16T04:57:28.847Z,7.45
2023-06-16T04:59:56.774Z,6.93
2023-06-16T05:02:28.352Z,7.07
2023-06-16T05:05:02.231Z,7.68
2023-06-16T05:07:28.749Z,7.13
2023-06-16T05:09:58.941Z,7.47
2023-06-16T05:12:29.170Z,7.97
2023-06-16T05:14:56.160Z,7.47
2023-06-16T05:17:23.955Z,7.18
2023-06-16T05:19:50.658Z,6.93
2023-06-16T05:22:19.701Z,6.68
2023-06-16T05:24:46.495Z,7.10
2023-06-16T05:27:13.099Z,7.18
2023-06-16T05:29:39.805Z,6.18
2023-06-16T05:32:06.669Z,6.78
2023-06-16T05:34:33.923Z,6.68
2023-06-16T05:37:01.391Z,6.53
2023-06-16T05:39:28.346Z,6.35
2023-06-16T05:41:55.177Z,6.28
2023-06-16T05:44:21.637Z,6.70
2023-06-16T05:46:51.344Z,6.55
2023-06-16T05:49:26.434Z,6.47
2023-06-16T05:52:17.382Z,6.45
2023-06-16T05:58:06.013Z,6.47
2023-06-16T06:04:13.491Z,6.50
2023-06-16T06:10:27.949Z,6.10
2023-06-16T06:13:19.482Z,5.97
2023-06-16T06:16:12.971Z,6.30
2023-06-16T06:18:40.203Z,5.75
2023-06-16T06:21:06.786Z,6.00
2023-06-16T06:23:34.022Z,5.93
2023-06-16T06:26:00.755Z,6.95
2023-06-16T06:28:27.384Z,5.90
2023-06-16T06:30:54.403Z,6.35
2023-06-16T06:33:22.236Z,6.20
2023-06-16T06:35:49.544Z,5.43
2023-06-16T06:38:16.204Z,5.47
2023-06-16T06:40:43.551Z,5.43
2023-06-16T06:43:12.505Z,5.88
2023-06-16T06:45:46.843Z,5.93
2023-06-16T06:48:13.667Z,6.57
2023-06-16T06:50:41.738Z,5.90
2023-06-16T06:53:09.087Z,6.45
2023-06-16T06:55:35.699Z,5.63
2023-06-16T06:58:03.603Z,6.05
2023-06-16T07:00:30.181Z,6.30
2023-06-16T07:02:57.484Z,6.40
2023-06-16T07:09:08.565Z,6.68
2023-06-16T07:15:17.852Z,6.85
2023-06-16T07:21:03.431Z,6.38
2023-06-16T07:26:46.351Z,6.28
2023-06-16T07:36:09.715Z,6.22
2023-06-16T07:42:17.758Z,5.93
2023-06-16T07:45:10.010Z,6.07
2023-06-16T07:47:36.852Z,5.97
2023-06-16T07:50:03.915Z,6.07
2023-06-16T07:52:32.106Z,6.45
2023-06-16T08:07:48.865Z,5.68
2023-06-16T08:20:07.905Z,5.47
2023-06-16T08:25:34.368Z,4.68
2023-06-16T08:35:00.451Z,4.55
2023-06-16T08:37:51.769Z,4.20
2023-06-16T08:44:00.873Z,3.67
2023-06-16T08:46:27.601Z,4.80
2023-06-16T08:48:54.372Z,4.22
2023-06-16T08:51:22.815Z,4.20
2023-06-16T08:53:50.468Z,4.25
2023-06-16T08:56:19.385Z,4.00
2023-06-16T08:58:47.848Z,4.25
2023-06-16T09:01:16.102Z,4.35
2023-06-16T09:03:44.068Z,4.28
2023-06-16T09:06:37.694Z,5.22
2023-06-16T09:12:31.816Z,3.97
2023-06-16T09:18:45.830Z,4.57
2023-06-16T09:31:14.071Z,4.43
2023-06-16T09:37:24.938Z,4.68
2023-06-16T09:43:21.192Z,5.07
2023-06-16T09:52:45.739Z,4.97
2023-06-16T09:55:26.536Z,5.25
2023-06-16T09:57:58.121Z,5.43
2023-06-16T10:03:31.618Z,5.15
2023-06-16T10:10:02.662Z,5.47
2023-06-16T10:13:12.700Z,5.15
2023-06-16T10:19:22.866Z,5.22
2023-06-16T10:25:31.747Z,5.38
2023-06-16T10:34:58.310Z,6.70
2023-06-16T10:54:08.160Z,7.18
2023-06-16T11:00:13.911Z,6.38
2023-06-16T11:03:07.078Z,5.75
2023-06-16T11:05:37.857Z,5.32
2023-06-16T11:08:06.950Z,4.70
2023-06-16T11:10:50.489Z,4.88
2023-06-16T11:13:17.844Z,5.00
2023-06-16T11:15:50.130Z,4.32
2023-06-16T11:21:43.382Z,3.65
2023-06-16T11:24:13.635Z,3.80
2023-06-16T11:26:41.050Z,3.30
2023-06-16T11:29:08.280Z,3.55
2023-06-16T11:31:38.725Z,3.60
2023-06-16T11:34:06.529Z,2.75
2023-06-16T11:36:36.509Z,3.03
2023-06-16T11:39:05.445Z,3.40
2023-06-16T11:41:32.304Z,3.38
2023-06-16T11:44:00.029Z,3.03
2023-06-16T11:46:28.101Z,3.10
2023-06-16T11:48:55.027Z,2.92
2023-06-16T11:51:23.599Z,2.75
2023-06-16T12:00:23.505Z,2.08
2023-06-16T12:06:31.500Z,1.40
2023-06-16T12:12:50.804Z,2.70
2023-06-16T12:15:42.611Z,3.65
2023-06-16T12:21:52.736Z,3.78
2023-06-16T12:24:20.086Z,3.33
2023-06-16T12:26:47.346Z,3.65
2023-06-16T12:29:15.833Z,3.95
2023-06-16T12:31:52.585Z,4.05
2023-06-16T12:34:22.741Z,4.20
2023-06-16T12:36:50.228Z,3.95
2023-06-16T12:39:18.283Z,4.32
2023-06-16T12:42:04.448Z,4.43
2023-06-16T12:46:58.368Z,5.03
2023-06-16T12:49:25.148Z,4.40
2023-06-16T12:51:51.789Z,4.65
2023-06-16T12:54:18.641Z,4.97
2023-06-16T13:00:01.821Z,6.20
2023-06-16T13:06:09.143Z,6.95
2023-06-16T13:15:12.381Z,7.28
2023-06-16T13:17:39.430Z,6.20
2023-06-16T13:20:06.320Z,5.95
2023-06-16T13:22:33.110Z,5.75
2023-06-16T13:25:04.002Z,5.82
2023-06-16T13:27:30.543Z,5.60
2023-06-16T13:29:57.191Z,5.70
2023-06-16T13:32:26.977Z,5.43
2023-06-16T13:34:53.532Z,6.03
2023-06-16T13:37:20.114Z,5.57
2023-06-16T13:39:46.707Z,5.20
2023-06-16T13:42:13.441Z,4.80
2023-06-16T13:44:45.640Z,5.57
2023-06-16T13:53:08.814Z,5.53
2023-06-16T13:58:50.608Z,4.85
2023-06-16T14:14:42.151Z,4.32
2023-06-16T14:17:08.835Z,4.30
2023-06-16T14:19:35.872Z,4.45
2023-06-16T14:22:03.730Z,4.00
2023-06-16T14:24:30.612Z,4.13
2023-06-16T14:26:57.216Z,4.35
2023-06-16T14:29:23.819Z,4.30
2023-06-16T14:31:50.516Z,4.53
2023-06-16T14:34:17.154Z,4.28
2023-06-16T14:36:43.720Z,4.40
2023-06-16T14:39:13.501Z,4.07
2023-06-16T14:41:41.013Z,4.05
2023-06-16T14:47:03.793Z,4.32
2023-06-16T14:56:00.940Z,4.70
2023-06-16T14:58:56.614Z,4.60
2023-06-16T15:01:26.154Z,4.50
2023-06-16T15:07:33.793Z,5.00
2023-06-16T15:19:52.751Z,3.83
2023-06-16T15:25:41.811Z,3.30
2023-06-16T15:31:51.349Z,3.20
2023-06-16T15:40:53.981Z,3.08
2023-06-16T15:43:20.855Z,3.17
2023-06-16T15:45:47.541Z,3.30
2023-06-16T15:48:14.338Z,2.83
2023-06-16T15:50:40.987Z,2.90
2023-06-16T15:53:10.953Z,3.17
2023-06-16T15:55:40.654Z,3.13
2023-06-16T16:08:01.785Z,3.22
2023-06-16T16:14:09.911Z,3.67
2023-06-16T16:17:06.516Z,3.10
2023-06-16T16:19:38.910Z,3.03
2023-06-16T16:25:27.099Z,2.78
2023-06-16T16:28:21.090Z,3.03
2023-06-16T16:30:48.043Z,3.38
2023-06-16T16:33:15.009Z,3.40
2023-06-16T16:35:41.840Z,3.65
2023-06-16T16:38:09.211Z,3.42
2023-06-16T16:40:35.932Z,3.35
2023-06-16T16:43:02.472Z,3.60
2023-06-16T16:52:02.728Z,3.47
2023-06-16T16:55:00.885Z,3.33
2023-06-16T16:57:52.916Z,3.65
2023-06-16T17:03:39.227Z,3.90
2023-06-16T17:06:05.882Z,3.35
2023-06-16T17:08:32.970Z,3.30
2023-06-16T17:11:00.188Z,3.17
2023-06-16T17:13:26.859Z,3.80
2023-06-16T17:15:53.469Z,3.30
2023-06-16T17:18:20.188Z,3.63
2023-06-16T17:20:46.848Z,3.75
2023-06-16T17:23:13.508Z,3.65
2023-06-16T17:25:40.144Z,3.42
2023-06-16T17:28:07.353Z,3.50
2023-06-16T17:30:35.743Z,3.63
2023-06-16T17:33:02.270Z,3.35
2023-06-16T17:35:30.781Z,3.47
2023-06-16T17:37:58.361Z,3.17
2023-06-16T17:40:28.556Z,3.50
2023-06-16T17:42:55.261Z,3.45
2023-06-16T17:45:21.949Z,3.53
2023-06-16T17:47:48.573Z,3.20
2023-06-16T17:50:15.496Z,3.65
2023-06-16T17:52:42.458Z,3.28
2023-06-16T17:55:09.465Z,3.22
2023-06-16T17:57:35.951Z,3.70
2023-06-16T18:00:04.151Z,3.70
2023-06-16T18:02:38.933Z,3.53
2023-06-16T18:05:05.987Z,3.00
2023-06-16T18:07:32.670Z,3.25
2023-06-16T18:09:59.341Z,3.13
2023-06-16T18:12:26.369Z,3.22
2023-06-16T18:14:52.865Z,3.17
2023-06-16T18:17:19.444Z,3.10
2023-06-16T18:19:46.100Z,2.72
2023-06-16T18:22:12.684Z,3.10
2023-06-16T18:24:39.224Z,2.90
2023-06-16T18:27:06.832Z,2.88
2023-06-16T18:29:35.704Z,2.67
2023-06-16T18:32:05.287Z,2.90
2023-06-16T18:34:32.353Z,3.40
2023-06-16T18:36:58.883Z,3.38
2023-06-16T18:39:26.874Z,9.48
2023-06-16T18:41:53.605Z,3.80
2023-06-16T18:44:20.627Z,3.10
2023-06-16T18:46:47.260Z,3.15
2023-06-16T18:49:14.063Z,3.33
2023-06-16T18:51:42.523Z,3.33
2023-06-16T18:54:09.946Z,3.22
2023-06-16T18:56:37.413Z,3.10
2023-06-16T18:59:04.214Z,3.00
2023-06-16T19:01:31.048Z,3.10
2023-06-16T19:03:57.806Z,3.50
2023-06-16T19:06:25.391Z,3.42
2023-06-16T19:08:53.011Z,3.60
2023-06-16T19:11:19.801Z,3.47
2023-06-16T19:13:48.639Z,4.38
2023-06-16T19:16:16.045Z,3.42
2023-06-16T19:18:43.342Z,3.63
2023-06-16T19:21:10.255Z,3.28
2023-06-16T19:23:36.932Z,3.88
2023-06-16T19:26:04.164Z,3.33
2023-06-16T19:28:44.812Z,3.90
2023-06-16T19:31:11.489Z,3.90
2023-06-16T19:33:38.205Z,3.47
2023-06-16T19:36:04.965Z,4.00
2023-06-16T19:38:31.469Z,4.28
2023-06-16T19:40:57.947Z,3.55
2023-06-16T19:43:24.632Z,3.85
2023-06-16T19:45:51.310Z,3.95
2023-06-16T19:48:18.222Z,3.85
2023-06-16T19:50:44.999Z,3.90
2023-06-16T19:53:11.677Z,4.38
2023-06-16T19:55:49.155Z,3.92
2023-06-16T19:58:17.625Z,4.00
2023-06-16T20:00:44.677Z,4.10
2023-06-16T20:03:11.554Z,3.75
2023-06-16T20:05:38.175Z,4.03
2023-06-16T20:08:04.890Z,4.53
2023-06-16T20:10:33.784Z,3.60
2023-06-16T20:13:01.084Z,4.18
2023-06-16T20:15:27.777Z,4.10
2023-06-16T20:17:54.712Z,4.40
2023-06-16T20:20:21.730Z,4.15
2023-06-16T20:22:48.764Z,4.20
2023-06-16T20:25:18.551Z,4.00
2023-06-16T20:27:45.348Z,4.35
2023-06-16T20:30:11.989Z,4.00
2023-06-16T20:32:38.964Z,3.88
2023-06-16T20:35:06.083Z,3.75
2023-06-16T20:37:33.311Z,3.83
2023-06-16T20:40:10.361Z,4.03
2023-06-16T20:42:37.796Z,3.97
2023-06-16T20:45:07.609Z,3.72
2023-06-16T20:47:37.484Z,4.15
2023-06-16T20:50:05.556Z,3.60
2023-06-16T20:52:32.401Z,3.92
2023-06-16T20:54:58.966Z,3.70
2023-06-16T20:57:27.615Z,3.55
2023-06-16T20:59:54.414Z,3.35
2023-06-16T21:02:21.163Z,3.22
2023-06-16T21:04:49.279Z,2.60
2023-06-16T21:07:21.005Z,3.15
2023-06-16T21:09:47.675Z,2.97
2023-06-16T21:12:14.275Z,3.00
2023-06-16T21:14:41.338Z,2.78
2023-06-16T21:17:07.830Z,2.67
2023-06-16T21:19:46.905Z,2.60
2023-06-16T21:22:14.332Z,2.80
2023-06-16T21:24:40.985Z,3.17
2023-06-16T21:27:07.648Z,2.95
2023-06-16T21:29:34.257Z,2.90
2023-06-16T21:32:00.846Z,2.67
2023-06-16T21:34:27.391Z,2.85
2023-06-16T21:36:53.837Z,2.90
2023-06-16T21:39:22.430Z,3.17
2023-06-16T21:41:49.385Z,3.65
2023-06-16T21:44:15.979Z,3.25
2023-06-16T21:46:42.601Z,3.10
2023-06-16T21:49:09.222Z,3.17
2023-06-16T21:51:35.789Z,3.03
2023-06-16T21:54:02.483Z,3.38
2023-06-16T21:56:29.052Z,2.90
2023-06-16T21:58:55.781Z,3.00
2023-06-16T22:01:22.539Z,3.60
2023-06-16T22:03:49.463Z,2.92
2023-06-16T22:06:17.533Z,3.03
2023-06-16T22:08:44.080Z,3.42
2023-06-16T22:11:10.795Z,2.72
2023-06-16T22:13:37.328Z,2.70
2023-06-16T22:16:04.166Z,3.05
2023-06-16T22:18:30.830Z,2.78
2023-06-16T22:20:57.954Z,2.78
2023-06-16T22:23:24.685Z,3.20
2023-06-16T22:25:51.511Z,2.60
2023-06-16T22:28:18.050Z,3.05
2023-06-16T22:30:44.810Z,3.03
2023-06-16T22:33:11.338Z,3.53
2023-06-16T22:35:38.119Z,3.47
2023-06-16T22:38:04.579Z,3.40
2023-06-16T22:40:31.137Z,3.40
2023-06-16T22:42:57.629Z,3.00
2023-06-16T22:45:24.358Z,3.10
2023-06-16T22:47:52.894Z,3.45
2023-06-16T22:50:19.934Z,3.72
2023-06-16T22:52:47.697Z,3.65
2023-06-16T22:55:14.264Z,3.58
2023-06-16T22:57:40.983Z,3.92
2023-06-16T23:00:09.910Z,3.60
2023-06-16T23:02:36.579Z,4.05
2023-06-16T23:05:03.453Z,4.10
2023-06-16T23:07:30.151Z,3.78
2023-06-16T23:09:56.637Z,3.92
2023-06-16T23:12:23.362Z,3.90
2023-06-16T23:14:49.849Z,4.45
2023-06-16T23:17:16.393Z,4.40
2023-06-16T23:19:42.969Z,3.50
2023-06-16T23:22:09.575Z,4.20
2023-06-16T23:24:36.238Z,3.97
2023-06-16T23:27:03.079Z,4.05
2023-06-16T23:29:29.928Z,3.13
2023-06-16T23:31:56.403Z,3.85
2023-06-16T23:34:24.159Z,3.88
2023-06-16T23:36:51.293Z,4.32
2023-06-16T23:39:18.239Z,4.68
2023-06-16T23:41:44.886Z,3.78
2023-06-16T23:44:11.476Z,4.05
2023-06-16T23:46:38.057Z,4.03
2023-06-16T23:49:04.641Z,3.28
2023-06-16T23:51:31.154Z,3.83
2023-06-16T23:53:57.780Z,4.13
2023-06-16T23:56:25.117Z,3.95
2023-06-16T23:58:51.885Z,3.88
